Time;durP1;ratioP1;P1;durP2;ratioP2;P2;SDS_P1;SDS_P2;PMS_P1;PMS_P2;Temp;Humidity;BMP_temperature;BMP_pressure;BME280_temperature;BME280_humidity;BME280_pressure;Samples;Min_cycle;Max_cycle;Signal;HPM_P1;HPM_P2
2021/05/24 00:00:45;;;;;;;4.60;1.87;;;8.80;99.90;;;;;;5032828;28;20033;-77
2021/05/24 00:03:11;;;;;;;5.30;2.00;;;8.80;99.90;;;;;;5010707;28;20029;-77
2021/05/24 00:05:38;;;;;;;3.13;1.83;;;8.80;99.90;;;;;;5023501;28;20087;-77
2021/05/24 00:08:04;;;;;;;3.73;1.50;;;8.80;99.90;;;;;;5032505;28;20100;-77
2021/05/24 00:10:32;;;;;;;2.50;1.80;;;8.70;99.90;;;;;;5032837;28;20104;-77
2021/05/24 00:13:02;;;;;;;2.97;1.60;;;8.70;99.90;;;;;;5032694;28;20021;-77
2021/05/24 00:15:37;;;;;;;4.23;2.03;;;8.70;99.90;;;;;;5032561;28;20449;-77
2021/05/24 00:18:02;;;;;;;2.88;1.80;;;8.70;99.90;;;;;;5018720;28;20060;-77
2021/05/24 00:20:32;;;;;;;2.50;1.90;;;8.70;99.90;;;;;;5032584;28;20029;-77
2021/05/24 00:22:58;;;;;;;2.47;1.53;;;8.70;99.90;;;;;;5002404;28;20021;-77
2021/05/24 00:25:25;;;;;;;2.80;1.67;;;8.70;99.90;;;;;;5031704;28;20025;-77
2021/05/24 00:27:51;;;;;;;2.97;1.87;;;8.70;99.90;;;;;;5021841;28;20887;-77
2021/05/24 00:30:17;;;;;;;4.63;2.20;;;8.60;99.90;;;;;;5029418;28;20018;-77
2021/05/24 00:32:43;;;;;;;3.17;1.43;;;8.60;99.90;;;;;;5032835;28;20030;-77
2021/05/24 00:35:10;;;;;;;3.77;1.80;;;8.60;99.90;;;;;;5018832;28;20022;-77
2021/05/24 00:37:36;;;;;;;2.20;1.43;;;8.60;99.90;;;;;;5032507;28;20036;-77
2021/05/24 00:40:04;;;;;;;2.37;1.43;;;8.60;99.90;;;;;;5032437;28;20125;-77
2021/05/24 00:42:32;;;;;;;3.30;2.00;;;8.60;99.90;;;;;;5031079;28;20108;-77
2021/05/24 00:44:58;;;;;;;3.27;1.70;;;8.60;99.90;;;;;;5032638;28;20053;-77
2021/05/24 00:47:26;;;;;;;5.43;1.63;;;8.60;99.90;;;;;;5032239;28;20176;-77
2021/05/24 00:49:51;;;;;;;4.57;1.90;;;8.60;99.90;;;;;;5018080;28;20018;-77
2021/05/24 00:52:17;;;;;;;3.47;1.90;;;8.60;99.90;;;;;;5029551;28;20029;-77
2021/05/24 00:54:42;;;;;;;3.47;1.57;;;8.60;99.90;;;;;;5018660;28;20038;-81
2021/05/24 00:57:08;;;;;;;3.93;1.50;;;8.60;99.90;;;;;;5017459;28;20036;-81
2021/05/24 00:59:36;;;;;;;3.77;1.30;;;8.60;99.90;;;;;;5010639;28;20382;-81
2021/05/24 01:02:02;;;;;;;4.53;1.70;;;8.60;99.90;;;;;;5010475;28;20032;-81
2021/05/24 01:04:28;;;;;;;2.67;1.60;;;8.60;99.90;;;;;;5010577;28;20053;-80
2021/05/24 01:06:55;;;;;;;3.63;1.43;;;8.60;99.90;;;;;;5008768;28;20077;-81
2021/05/24 01:09:22;;;;;;;5.27;1.70;;;8.60;99.90;;;;;;5018795;28;20018;-80
2021/05/24 01:11:49;;;;;;;2.87;1.50;;;8.50;99.90;;;;;;5010067;28;20034;-80
2021/05/24 01:14:15;;;;;;;3.60;1.57;;;8.50;99.90;;;;;;5010349;28;20049;-80
2021/05/24 01:16:44;;;;;;;3.07;1.70;;;8.50;99.90;;;;;;5010440;28;20081;-80
2021/05/24 01:19:10;;;;;;;2.43;1.50;;;8.40;99.90;;;;;;5019478;28;20116;-80
2021/05/24 01:21:35;;;;;;;3.07;1.93;;;8.40;99.90;;;;;;5010268;28;20030;-80
2021/05/24 01:24:01;;;;;;;2.43;1.60;;;8.40;99.90;;;;;;5009603;28;20455;-81
2021/05/24 01:26:27;;;;;;;5.77;1.47;;;8.30;99.90;;;;;;5010435;28;20097;-81
2021/05/24 01:28:53;;;;;;;2.73;1.40;;;8.30;99.90;;;;;;5021066;28;20037;-81
2021/05/24 01:31:19;;;;;;;2.57;1.80;;;8.30;99.90;;;;;;5010132;28;20080;-80
2021/05/24 01:33:45;;;;;;;3.03;1.50;;;8.20;99.90;;;;;;5010320;28;20030;-80
2021/05/24 01:36:12;;;;;;;5.00;1.73;;;8.20;99.90;;;;;;5010005;28;20096;-81
2021/05/24 01:38:40;;;;;;;1.80;1.40;;;8.20;99.90;;;;;;5010480;28;20048;-80
2021/05/24 01:41:11;;;;;;;6.20;1.70;;;8.20;99.90;;;;;;5010134;28;20038;-80
2021/05/24 01:43:38;;;;;;;2.23;1.57;;;8.20;99.90;;;;;;5010038;28;20344;-80
2021/05/24 01:46:05;;;;;;;1.73;1.40;;;8.20;99.90;;;;;;4992040;28;20454;-80
2021/05/24 01:48:32;;;;;;;4.27;1.70;;;8.20;99.90;;;;;;5014789;28;20465;-80
2021/05/24 01:50:57;;;;;;;4.57;1.53;;;8.20;99.90;;;;;;4992031;28;20042;-80
2021/05/24 01:53:24;;;;;;;7.00;1.30;;;8.10;99.90;;;;;;5010091;28;20450;-80
2021/05/24 01:55:50;;;;;;;2.10;1.37;;;8.10;99.90;;;;;;4992475;28;20026;-80
2021/05/24 01:58:16;;;;;;;5.57;1.50;;;8.10;99.90;;;;;;5009717;28;20034;-80
2021/05/24 02:00:42;;;;;;;5.53;1.60;;;8.10;99.90;;;;;;5010701;28;20347;-77
2021/05/24 02:03:08;;;;;;;4.63;1.70;;;8.00;99.90;;;;;;5011482;28;20042;-77
2021/05/24 02:05:35;;;;;;;4.60;1.60;;;8.00;99.90;;;;;;5013359;28;20022;-77
2021/05/24 02:08:02;;;;;;;4.77;1.60;;;8.00;99.90;;;;;;5000007;28;20034;-77
2021/05/24 02:10:34;;;;;;;4.70;1.50;;;8.00;99.90;;;;;;5011368;28;20022;-77
2021/05/24 02:13:00;;;;;;;2.57;1.47;;;8.00;99.90;;;;;;5026402;28;20635;-77
2021/05/24 02:15:32;;;;;;;2.73;1.50;;;8.00;99.90;;;;;;5011452;28;20050;-78
2021/05/24 02:17:57;;;;;;;6.10;1.83;;;8.00;99.90;;;;;;5021919;28;20040;-78
2021/05/24 02:20:26;;;;;;;2.40;1.13;;;8.00;99.90;;;;;;5013414;28;20141;-78
2021/05/24 02:22:53;;;;;;;2.97;1.40;;;8.00;99.90;;;;;;5010939;28;20077;-77
2021/05/24 02:25:19;;;;;;;3.50;1.50;;;8.00;99.90;;;;;;5010758;28;20032;-77
2021/05/24 02:27:45;;;;;;;1.97;1.50;;;8.00;99.90;;;;;;4993463;28;20030;-78
2021/05/24 02:30:12;;;;;;;5.27;1.47;;;8.00;99.90;;;;;;5011137;28;20477;-77
2021/05/24 02:32:39;;;;;;;3.97;1.40;;;8.00;99.90;;;;;;5011513;28;20018;-77
2021/05/24 02:35:06;;;;;;;6.00;1.63;;;8.00;99.90;;;;;;5012250;28;20386;-77
2021/05/24 02:37:31;;;;;;;2.20;1.40;;;8.00;99.90;;;;;;5020222;28;20021;-77
2021/05/24 02:39:57;;;;;;;2.87;1.80;;;8.00;99.90;;;;;;5023987;28;20422;-77
2021/05/24 02:42:25;;;;;;;4.47;1.53;;;8.00;99.90;;;;;;5014535;28;20058;-78
2021/05/24 02:44:50;;;;;;;3.43;1.87;;;8.00;99.90;;;;;;5014481;28;20430;-77
2021/05/24 02:47:16;;;;;;;4.33;1.60;;;8.00;99.90;;;;;;5020899;28;20030;-78
2021/05/24 02:49:44;;;;;;;3.97;1.40;;;8.00;99.90;;;;;;5014113;28;20026;-77
2021/05/24 02:52:11;;;;;;;3.67;1.80;;;7.90;99.90;;;;;;5014206;28;20026;-77
2021/05/24 02:54:37;;;;;;;4.40;1.70;;;7.90;99.90;;;;;;5018922;28;20022;-78
2021/05/24 02:57:03;;;;;;;2.20;1.27;;;7.90;99.90;;;;;;5004825;28;20494;-77
2021/05/24 02:59:29;;;;;;;2.50;1.70;;;7.90;99.90;;;;;;5013316;28;20030;-77
2021/05/24 03:01:54;;;;;;;2.37;1.50;;;7.90;99.90;;;;;;4995755;28;20034;-77
2021/05/24 03:04:25;;;;;;;2.47;1.50;;;7.90;99.90;;;;;;5013848;28;20402;-77
2021/05/24 03:06:51;;;;;;;4.83;1.80;;;7.90;99.90;;;;;;5013707;28;20025;-78
2021/05/24 03:09:17;;;;;;;2.50;1.57;;;7.90;99.90;;;;;;5022168;28;20761;-77
2021/05/24 03:11:42;;;;;;;3.93;1.43;;;7.80;99.90;;;;;;4996402;28;20038;-77
2021/05/24 03:14:08;;;;;;;2.17;1.50;;;7.80;99.90;;;;;;5002684;28;20045;-77
2021/05/24 03:16:34;;;;;;;3.10;1.60;;;7.80;99.90;;;;;;5020017;28;20034;-77
2021/05/24 03:18:59;;;;;;;2.87;1.40;;;7.80;99.90;;;;;;4996685;28;20088;-77
2021/05/24 03:21:25;;;;;;;5.60;1.50;;;7.70;99.90;;;;;;5014048;28;20739;-77
2021/05/24 03:23:50;;;;;;;2.00;1.40;;;7.70;99.90;;;;;;5014046;28;20017;-77
2021/05/24 03:26:16;;;;;;;5.00;2.13;;;7.70;99.90;;;;;;5014078;28;20030;-77
2021/05/24 03:28:44;;;;;;;3.73;1.50;;;7.70;99.90;;;;;;5013711;28;20029;-77
2021/05/24 03:31:10;;;;;;;3.53;1.70;;;7.60;99.90;;;;;;5013874;28;20050;-78
2021/05/24 03:33:36;;;;;;;2.43;1.57;;;7.60;99.90;;;;;;5013541;28;20411;-77
2021/05/24 03:36:02;;;;;;;2.67;1.60;;;7.50;99.90;;;;;;5013731;28;20033;-77
2021/05/24 03:38:27;;;;;;;5.83;1.60;;;7.50;99.90;;;;;;5023719;28;20032;-77
2021/05/24 03:40:53;;;;;;;3.23;1.50;;;7.50;99.90;;;;;;4997873;28;20105;-77
2021/05/24 03:43:20;;;;;;;6.97;1.63;;;7.50;99.90;;;;;;5015352;28;20108;-77
2021/05/24 03:45:46;;;;;;;1.80;1.33;;;7.50;99.90;;;;;;5014837;28;20018;-77
2021/05/24 03:48:12;;;;;;;1.77;1.30;;;7.40;99.90;;;;;;5017814;28;20034;-77
2021/05/24 03:50:37;;;;;;;3.83;1.70;;;7.40;99.90;;;;;;5013466;28;20459;-77
2021/05/24 03:53:03;;;;;;;4.20;1.43;;;7.40;99.90;;;;;;5013171;28;20194;-77
2021/05/24 03:55:29;;;;;;;4.07;1.50;;;7.40;99.90;;;;;;5013315;28;20022;-77
2021/05/24 03:57:54;;;;;;;3.63;1.60;;;7.40;99.90;;;;;;5013136;28;20034;-77
2021/05/24 04:00:21;;;;;;;2.67;1.30;;;7.40;99.90;;;;;;5015345;28;20045;-77
2021/05/24 04:02:47;;;;;;;5.57;1.60;;;7.40;99.90;;;;;;5020108;28;20026;-78
2021/05/24 04:05:22;;;;;;;9.33;2.00;;;7.40;99.90;;;;;;5012395;28;20112;-77
2021/05/24 04:07:53;;;;;;;2.30;1.50;;;7.40;99.90;;;;;;5012341;28;20033;-78
2021/05/24 04:10:21;;;;;;;4.43;1.70;;;7.50;99.90;;;;;;5014240;28;20029;-77
2021/05/24 04:12:47;;;;;;;2.67;1.50;;;7.50;99.90;;;;;;5021437;28;20025;-77
2021/05/24 04:15:14;;;;;;;5.30;1.90;;;7.40;99.90;;;;;;5014949;28;20044;-78
2021/05/24 04:17:42;;;;;;;2.83;1.53;;;7.50;99.90;;;;;;5012699;28;20364;-77
2021/05/24 04:20:11;;;;;;;5.60;1.53;;;7.50;99.90;;;;;;5012680;28;20040;-77
2021/05/24 04:22:37;;;;;;;2.30;1.70;;;7.50;99.90;;;;;;5011529;28;20025;-77
2021/05/24 04:25:03;;;;;;;2.77;1.77;;;7.50;99.90;;;;;;4994835;28;20026;-78
2021/05/24 04:27:29;;;;;;;3.43;2.13;;;7.50;99.90;;;;;;5026032;28;20081;-77
2021/05/24 04:29:54;;;;;;;4.97;1.80;;;7.60;99.90;;;;;;4994789;28;20021;-77
2021/05/24 04:32:23;;;;;;;3.07;2.07;;;7.60;99.90;;;;;;5012318;28;20018;-77
2021/05/24 04:34:49;;;;;;;2.83;2.03;;;7.60;99.90;;;;;;5012293;28;20486;-78
2021/05/24 04:37:15;;;;;;;2.97;2.10;;;7.60;99.90;;;;;;5012248;28;20120;-77
2021/05/24 04:39:43;;;;;;;4.90;2.80;;;7.70;99.90;;;;;;5024127;28;20438;-78
2021/05/24 04:42:09;;;;;;;5.30;1.80;;;7.70;99.90;;;;;;5013887;28;20041;-78
2021/05/24 04:44:34;;;;;;;3.63;1.70;;;7.70;99.90;;;;;;4994950;28;20022;-77
2021/05/24 04:47:00;;;;;;;4.27;1.80;;;7.80;99.90;;;;;;4995168;28;20042;-77
2021/05/24 04:49:26;;;;;;;1.57;1.30;;;7.80;99.90;;;;;;5017102;28;20025;-77
2021/05/24 04:51:51;;;;;;;2.70;1.60;;;7.80;99.90;;;;;;5032473;28;20432;-77
2021/05/24 04:54:17;;;;;;;2.97;1.60;;;7.90;99.90;;;;;;5012226;28;20471;-77
2021/05/24 04:56:42;;;;;;;2.93;1.40;;;7.90;99.90;;;;;;5016900;28;20014;-77
2021/05/24 04:59:08;;;;;;;5.13;1.73;;;7.90;99.90;;;;;;5003417;28;20026;-77
2021/05/24 05:01:34;;;;;;;5.80;4.03;;;7.90;99.90;;;;;;5025404;28;20079;-77
2021/05/24 05:03:59;;;;;;;4.00;1.73;;;7.90;99.90;;;;;;5012409;28;20201;-77
2021/05/24 05:06:25;;;;;;;3.47;1.50;;;8.00;99.90;;;;;;5012387;28;20022;-77
2021/05/24 05:08:50;;;;;;;10.60;6.63;;;8.00;99.90;;;;;;5012304;28;20029;-77
2021/05/24 05:11:16;;;;;;;5.03;1.80;;;8.10;99.90;;;;;;5012165;28;20383;-77
2021/05/24 05:13:42;;;;;;;5.80;5.30;;;8.10;99.90;;;;;;5012467;28;20108;-77
2021/05/24 05:16:09;;;;;;;4.37;2.37;;;8.10;99.90;;;;;;5012335;28;20046;-77
2021/05/24 05:18:34;;;;;;;4.57;2.50;;;8.10;99.90;;;;;;5026264;28;20394;-77
2021/05/24 05:21:00;;;;;;;7.47;6.27;;;8.20;99.90;;;;;;5020749;28;20022;-77
2021/05/24 05:23:26;;;;;;;5.40;4.53;;;8.20;99.90;;;;;;5018038;28;20030;-77
2021/05/24 05:25:52;;;;;;;4.73;3.73;;;8.20;99.90;;;;;;5025829;28;20026;-77
2021/05/24 05:28:20;;;;;;;4.33;1.70;;;8.30;99.90;;;;;;5012238;28;20057;-77
2021/05/24 05:30:45;;;;;;;2.50;1.97;;;8.40;99.90;;;;;;5012931;28;20021;-77
2021/05/24 05:33:11;;;;;;;4.13;1.77;;;8.40;99.90;;;;;;5012035;28;20041;-77
2021/05/24 05:35:37;;;;;;;2.73;1.90;;;8.50;99.90;;;;;;5012281;28;20106;-77
2021/05/24 05:38:02;;;;;;;4.27;1.47;;;8.50;99.90;;;;;;5016587;28;20025;-77
2021/05/24 05:40:30;;;;;;;2.90;1.50;;;8.60;99.90;;;;;;5019775;28;20030;-77
2021/05/24 05:42:56;;;;;;;4.43;1.60;;;8.60;99.90;;;;;;5012230;28;20018;-76
2021/05/24 05:45:22;;;;;;;2.23;1.57;;;8.80;99.90;;;;;;5032088;28;20125;-76
2021/05/24 05:47:47;;;;;;;7.10;3.87;;;8.80;99.90;;;;;;5025025;28;20030;-76
2021/05/24 05:50:13;;;;;;;5.53;4.63;;;8.90;99.90;;;;;;5023757;28;20022;-77
2021/05/24 05:52:39;;;;;;;3.80;2.93;;;9.00;99.90;;;;;;5015643;28;20013;-74
2021/05/24 05:55:06;;;;;;;7.70;7.00;;;9.10;99.90;;;;;;5028160;28;20408;-76
2021/05/24 05:57:32;;;;;;;3.97;2.17;;;9.20;99.90;;;;;;5017562;28;20034;-77
2021/05/24 05:59:57;;;;;;;3.70;2.67;;;9.30;99.90;;;;;;5011877;28;20045;-78
2021/05/24 06:02:23;;;;;;;2.63;1.80;;;9.40;99.90;;;;;;5035694;22;20049;-71
2021/05/24 06:04:49;;;;;;;5.07;2.77;;;9.50;99.90;;;;;;5033124;28;20060;-70
2021/05/24 06:07:15;;;;;;;3.07;1.93;;;9.60;99.90;;;;;;5021427;28;20033;-77
2021/05/24 06:09:43;;;;;;;3.73;1.40;;;9.70;99.90;;;;;;5058614;23;20387;-77
2021/05/24 06:12:09;;;;;;;4.10;1.90;;;9.90;99.90;;;;;;5018079;28;20092;-77
2021/05/24 06:14:36;;;;;;;2.33;1.50;;;10.10;99.90;;;;;;5051003;28;20021;-78
2021/05/24 06:17:05;;;;;;;2.20;1.20;;;10.20;99.90;;;;;;5057072;28;20484;-77
2021/05/24 06:19:33;;;;;;;3.83;1.57;;;10.40;99.90;;;;;;5079611;22;20350;-77
2021/05/24 06:21:59;;;;;;;4.27;2.20;;;10.40;99.90;;;;;;5052787;28;20032;-81
2021/05/24 06:24:25;;;;;;;4.43;1.90;;;10.50;99.90;;;;;;5052607;28;20009;-81
2021/05/24 06:26:50;;;;;;;4.40;2.10;;;10.50;99.90;;;;;;5053145;28;20388;-82
2021/05/24 06:29:24;;;;;;;10.23;3.97;;;10.60;99.90;;;;;;5053371;28;20013;-78
2021/05/24 06:31:51;;;;;;;88.17;35.20;;;10.80;99.90;;;;;;5052556;28;20103;-82
2021/05/24 06:34:17;;;;;;;41.92;16.42;;;11.00;99.90;;;;;;5052461;28;20013;-78
2021/05/24 06:36:43;;;;;;;14.77;6.20;;;11.10;99.90;;;;;;5062721;28;20054;-82
2021/05/24 06:39:09;;;;;;;50.55;18.77;;;11.30;99.90;;;;;;5053573;28;20693;-77
2021/05/24 06:41:34;;;;;;;4.57;2.30;;;11.40;99.90;;;;;;5054052;28;20140;-77
2021/05/24 06:44:00;;;;;;;6.35;2.50;;;11.40;99.90;;;;;;5053856;28;20046;-81
2021/05/24 06:46:26;;;;;;;32.22;12.77;;;11.60;99.90;;;;;;5053170;28;20017;-78
2021/05/24 06:48:52;;;;;;;14.13;6.35;;;11.70;99.90;;;;;;5055563;28;20025;-81
2021/05/24 06:51:18;;;;;;;7.00;2.75;;;11.80;99.90;;;;;;5056220;28;20108;-78
2021/05/24 06:53:46;;;;;;;6.13;2.40;;;11.80;99.90;;;;;;5045299;28;20371;-81
2021/05/24 06:56:12;;;;;;;3.88;2.10;;;11.90;99.90;;;;;;5041822;28;20470;-81
2021/05/24 06:58:38;;;;;;;4.70;2.20;;;12.00;99.90;;;;;;5045245;28;20025;-80
2021/05/24 07:01:04;;;;;;;3.35;1.85;;;12.20;99.90;;;;;;5023635;28;20017;-77
2021/05/24 07:03:29;;;;;;;6.93;2.17;;;12.20;99.90;;;;;;5048711;28;20033;-81
2021/05/24 07:05:56;;;;;;;1.70;1.10;;;12.30;99.90;;;;;;5040034;28;20040;-81
2021/05/24 07:08:22;;;;;;;1.80;1.20;;;12.30;99.90;;;;;;5048558;28;20473;-77
2021/05/24 07:10:48;;;;;;;2.67;2.25;;;12.40;99.90;;;;;;5053114;28;20063;-80
2021/05/24 07:13:13;;;;;;;1.88;1.48;;;12.50;99.90;;;;;;5052064;28;20048;-82
2021/05/24 07:15:39;;;;;;;2.67;2.08;;;12.40;99.90;;;;;;5051887;28;20052;-80
2021/05/24 07:18:05;;;;;;;4.22;2.72;;;12.40;99.90;;;;;;5052356;28;20041;-80
2021/05/24 07:20:31;;;;;;;3.95;2.33;;;12.50;99.90;;;;;;5050527;28;20504;-80
2021/05/24 07:22:56;;;;;;;1.67;1.38;;;12.50;99.90;;;;;;5051997;28;20112;-79
2021/05/24 07:25:22;;;;;;;1.95;1.20;;;12.70;99.90;;;;;;5051441;28;20191;-79
2021/05/24 07:27:48;;;;;;;4.38;1.38;;;12.80;99.90;;;;;;5052334;28;20389;-79
2021/05/24 07:30:14;;;;;;;3.10;1.33;;;12.90;99.90;;;;;;5051647;28;20025;-79
2021/05/24 07:32:40;;;;;;;1.73;1.20;;;12.90;99.90;;;;;;5050673;28;20108;-79
2021/05/24 07:35:06;;;;;;;1.73;1.15;;;13.00;99.90;;;;;;5046330;28;20915;-79
2021/05/24 07:37:31;;;;;;;1.30;1.00;;;13.00;99.90;;;;;;5024503;28;20498;-76
2021/05/24 07:39:57;;;;;;;3.95;1.20;;;13.10;99.90;;;;;;5049912;28;20434;-76
2021/05/24 07:42:22;;;;;;;4.15;1.10;;;13.10;99.90;;;;;;5049901;28;20029;-76
2021/05/24 07:44:48;;;;;;;2.75;1.10;;;13.30;99.90;;;;;;5048125;28;20046;-76
2021/05/24 07:47:14;;;;;;;1.88;1.20;;;13.70;99.90;;;;;;5046777;28;20080;-76
2021/05/24 07:49:39;;;;;;;1.40;0.98;;;13.90;99.90;;;;;;5032289;28;20029;-79
2021/05/24 07:52:05;;;;;;;2.42;1.40;;;14.10;99.90;;;;;;5046604;28;20021;-76
2021/05/24 07:54:31;;;;;;;1.90;1.40;;;14.20;99.90;;;;;;5048928;28;20029;-76
2021/05/24 07:56:56;;;;;;;2.65;1.25;;;14.30;99.90;;;;;;5050411;28;20745;-76
2021/05/24 07:59:22;;;;;;;2.13;1.10;;;14.30;99.90;;;;;;5047802;28;20086;-76
2021/05/24 08:01:47;;;;;;;2.58;1.20;;;14.40;99.90;;;;;;5044454;28;20033;-79
2021/05/24 08:04:13;;;;;;;2.63;1.15;;;14.40;99.90;;;;;;5048337;28;20043;-80
2021/05/24 08:06:39;;;;;;;2.45;1.08;;;14.50;99.90;;;;;;5046024;28;20029;-79
2021/05/24 08:09:05;;;;;;;1.90;1.15;;;14.60;99.90;;;;;;5030185;28;20025;-81
2021/05/24 08:11:31;;;;;;;1.73;0.93;;;14.70;99.90;;;;;;5048182;28;20025;-80
2021/05/24 08:13:56;;;;;;;1.30;0.90;;;14.70;99.90;;;;;;5043806;28;20032;-80
2021/05/24 08:16:23;;;;;;;4.93;0.98;;;14.80;99.90;;;;;;5047856;28;20029;-80
2021/05/24 08:18:49;;;;;;;2.45;0.98;;;14.90;99.90;;;;;;5048855;28;20036;-80
2021/05/24 08:21:15;;;;;;;2.20;1.45;;;15.00;99.90;;;;;;5051220;28;20402;-73
2021/05/24 08:23:45;;;;;;;2.00;0.90;;;15.10;99.90;;;;;;5052475;28;20067;-76
2021/05/24 08:26:11;;;;;;;0.82;0.75;;;15.10;99.90;;;;;;5045885;28;20163;-71
2021/05/24 08:28:37;;;;;;;1.00;0.80;;;15.20;99.90;;;;;;5054392;28;20032;-71
2021/05/24 08:31:03;;;;;;;1.20;0.80;;;15.30;99.90;;;;;;5054108;28;20032;-71
2021/05/24 08:33:30;;;;;;;3.55;1.33;;;15.30;99.90;;;;;;5053230;28;20067;-67
2021/05/24 08:35:56;;;;;;;3.80;1.27;;;15.40;99.90;;;;;;5051289;28;20070;-74
2021/05/24 08:38:22;;;;;;;4.00;1.33;;;15.50;99.90;;;;;;5051536;28;20029;-72
2021/05/24 08:40:48;;;;;;;1.55;0.93;;;15.50;99.90;;;;;;5049415;28;20029;-77
2021/05/24 08:43:15;;;;;;;2.80;0.90;;;15.60;99.90;;;;;;5035611;28;20029;-79
2021/05/24 08:45:43;;;;;;;2.85;1.10;;;15.60;99.90;;;;;;5054089;28;20021;-76
2021/05/24 08:48:11;;;;;;;2.20;1.10;;;15.60;99.90;;;;;;5054264;28;20025;-76
2021/05/24 08:50:38;;;;;;;4.65;1.20;;;15.70;99.90;;;;;;5041847;28;20032;-76
2021/05/24 08:53:09;;;;;;;2.10;1.20;;;15.80;99.90;;;;;;5033772;28;20029;-76
2021/05/24 08:55:35;;;;;;;1.77;1.02;;;15.90;99.90;;;;;;5016213;28;20052;-76
2021/05/24 08:58:00;;;;;;;2.08;1.30;;;15.80;99.90;;;;;;5033756;28;20438;-76
2021/05/24 09:00:26;;;;;;;1.52;0.90;;;15.80;99.90;;;;;;5016133;28;20037;-76
2021/05/24 09:02:56;;;;;;;1.35;1.02;;;15.80;99.90;;;;;;5047133;28;20024;-76
2021/05/24 09:05:29;;;;;;;2.70;1.08;;;15.70;99.90;;;;;;5053600;28;20059;-76
2021/05/24 09:07:57;;;;;;;21.27;12.90;;;15.50;99.90;;;;;;5053584;28;20025;-76
2021/05/24 09:10:28;;;;;;;2.30;1.50;;;15.50;99.90;;;;;;5053548;28;20095;-76
2021/05/24 09:12:55;;;;;;;2.80;1.85;;;15.30;99.90;;;;;;5035844;28;20437;-76
2021/05/24 09:15:23;;;;;;;6.50;4.22;;;15.20;99.90;;;;;;5053283;28;20013;-76
2021/05/24 09:17:53;;;;;;;7.80;3.17;;;15.30;99.90;;;;;;5053493;28;20017;-76
2021/05/24 09:20:31;;;;;;;15.90;13.35;;;15.30;99.90;;;;;;5053201;28;20083;-76
2021/05/24 09:23:21;;;;;;;6.20;4.50;;;15.40;99.90;;;;;;5035507;28;20116;-76
2021/05/24 09:25:55;;;;;;;2.55;1.90;;;15.40;99.90;;;;;;5044581;28;20029;-76
2021/05/24 09:28:25;;;;;;;2.67;1.70;;;15.50;99.90;;;;;;5053365;28;20477;-76
2021/05/24 09:31:07;;;;;;;2.95;1.20;;;15.60;99.90;;;;;;5053755;28;20041;-76
2021/05/24 09:33:35;;;;;;;2.05;0.90;;;15.60;99.90;;;;;;5053165;28;20043;-76
2021/05/24 09:36:01;;;;;;;1.85;1.23;;;15.50;99.90;;;;;;5033270;28;20071;-76
2021/05/24 09:38:35;;;;;;;2.92;1.23;;;15.70;99.90;;;;;;5045481;28;20101;-76
2021/05/24 09:41:02;;;;;;;2.60;0.90;;;15.70;99.90;;;;;;5053110;28;20064;-76
2021/05/24 09:43:37;;;;;;;1.23;1.00;;;15.80;99.90;;;;;;5053139;28;20316;-76
2021/05/24 09:46:10;;;;;;;;;;;16.00;99.90;;;;;;5057452;28;20021;-76
2021/05/24 09:48:36;;;;;;;2.88;1.27;;;16.10;99.90;;;;;;5039114;28;20002;-76
2021/05/24 09:51:04;;;;;;;1.55;0.90;;;16.20;99.90;;;;;;5057003;28;20021;-76
2021/05/24 09:53:30;;;;;;;9.02;4.30;;;16.30;99.90;;;;;;5029039;28;20073;-76
2021/05/24 09:56:03;;;;;;;2.95;1.10;;;16.50;99.90;;;;;;5053003;28;20021;-76
2021/05/24 09:58:28;;;;;;;3.40;1.27;;;16.60;99.90;;;;;;5055984;28;20124;-81
2021/05/24 10:01:02;;;;;;;3.08;1.45;;;16.90;99.90;;;;;;5035833;28;20513;-82
2021/05/24 10:03:33;;;;;;;4.40;1.40;;;17.20;99.90;;;;;;5052552;28;20079;-76
2021/05/24 10:05:59;;;;;;;3.20;1.20;;;17.20;99.90;;;;;;5046908;28;20021;-76
2021/05/24 10:08:26;;;;;;;2.47;1.20;;;17.50;99.90;;;;;;5056722;28;20044;-77
2021/05/24 10:10:51;;;;;;;6.97;2.00;;;17.60;99.90;;;;;;5045095;28;20043;-81
2021/05/24 10:13:18;;;;;;;5.88;1.10;;;17.80;99.90;;;;;;5051229;28;20025;-81
2021/05/24 10:15:44;;;;;;;2.05;1.20;;;17.50;99.90;;;;;;5053941;28;20798;-81
2021/05/24 10:18:12;;;;;;;3.97;2.80;;;17.80;99.90;;;;;;5053679;28;20377;-82
2021/05/24 10:20:38;;;;;;;3.20;1.40;;;17.90;99.90;;;;;;5053578;28;20806;-81
2021/05/24 10:23:04;;;;;;;3.40;2.00;;;18.00;99.90;;;;;;5053330;28;20024;-81
2021/05/24 10:25:32;;;;;;;5.25;1.90;;;18.20;99.90;;;;;;5053099;28;20035;-80
2021/05/24 10:28:02;;;;;;;3.47;2.13;;;18.20;99.90;;;;;;5053075;28;20040;-81
2021/05/24 10:30:28;;;;;;;3.65;1.42;;;18.20;99.90;;;;;;5053515;28;20029;-77
2021/05/24 10:33:01;;;;;;;4.93;1.27;;;18.10;99.90;;;;;;5056411;28;20040;-76
2021/05/24 10:35:41;;;;;;;2.05;1.25;;;18.10;99.90;;;;;;5056262;28;20060;-76
2021/05/24 10:38:29;;;;;;;3.53;1.73;;;18.00;99.90;;;;;;5037826;28;20640;-80
2021/05/24 10:41:12;;;;;;;5.20;1.88;;;17.90;99.90;;;;;;5055412;28;20025;-69
2021/05/24 10:43:49;;;;;;;3.80;1.90;;;18.00;99.90;;;;;;5061199;28;20024;-69
2021/05/24 10:46:28;;;;;;;4.30;2.00;;;18.10;99.90;;;;;;5045256;28;20036;-70
2021/05/24 10:49:05;;;;;;;3.40;1.60;;;18.00;99.90;;;;;;5055139;28;20107;-67
2021/05/24 10:51:45;;;;;;;3.13;1.55;;;17.90;99.90;;;;;;5054694;28;20040;-69
2021/05/24 10:54:20;;;;;;;2.05;1.20;;;17.80;99.90;;;;;;5045927;28;20390;-69
2021/05/24 10:57:04;;;;;;;2.70;1.65;;;17.90;99.90;;;;;;5052185;28;20060;-70
2021/05/24 10:59:39;;;;;;;2.50;1.37;;;18.00;99.90;;;;;;5040197;28;20030;-70
2021/05/24 11:02:17;;;;;;;2.58;1.63;;;17.90;99.90;;;;;;5040363;28;20301;-70
2021/05/24 11:04:57;;;;;;;3.42;1.25;;;18.10;99.90;;;;;;5051827;28;20373;-70
2021/05/24 11:07:38;;;;;;;2.90;1.30;;;18.10;99.90;;;;;;5052397;28;20079;-70
2021/05/24 11:10:13;;;;;;;4.93;1.50;;;18.10;99.90;;;;;;5051578;28;20040;-70
2021/05/24 11:12:39;;;;;;;1.40;1.10;;;17.90;99.90;;;;;;5047184;28;20063;-69
2021/05/24 11:15:06;;;;;;;2.67;1.27;;;17.90;99.90;;;;;;5047666;28;20127;-71
2021/05/24 11:18:00;;;;;;;2.78;1.60;;;17.90;99.90;;;;;;5049416;28;20071;-68
2021/05/24 11:20:36;;;;;;;2.95;1.60;;;17.90;99.90;;;;;;5046889;28;20477;-69
2021/05/24 11:23:41;;;;;;;6.13;1.40;;;18.00;99.90;;;;;;5048980;28;20029;-68
2021/05/24 11:26:16;;;;;;;2.00;1.17;;;17.90;99.90;;;;;;5041715;28;20032;-70
2021/05/24 11:28:51;;;;;;;;;;;18.10;99.90;;;;;;5049296;28;20116;-69
2021/05/24 11:31:19;;;;;;;2.08;1.27;;;18.00;99.90;;;;;;5049069;28;20356;-68
2021/05/24 11:33:48;;;;;;;3.65;1.30;;;18.10;99.90;;;;;;5037417;28;20142;-69
2021/05/24 11:36:42;;;;;;;3.33;1.70;;;18.20;99.90;;;;;;5030439;28;20037;-69
2021/05/24 11:39:08;;;;;;;2.17;1.13;;;18.20;99.90;;;;;;5037996;28;20033;-70
2021/05/24 11:41:53;;;;;;;1.88;1.00;;;18.20;99.90;;;;;;5030566;28;20827;-70
2021/05/24 11:44:29;;;;;;;1.77;1.20;;;18.30;99.90;;;;;;5049435;28;20041;-69
2021/05/24 11:46:57;;;;;;;3.90;1.48;;;18.30;99.90;;;;;;5048728;28;20720;-69
2021/05/24 11:49:40;;;;;;;1.85;1.10;;;18.50;99.90;;;;;;5046562;28;20029;-67
2021/05/24 11:52:09;;;;;;;3.92;1.30;;;18.60;99.90;;;;;;5051449;28;20025;-69
2021/05/24 11:54:35;;;;;;;1.83;1.10;;;18.70;99.90;;;;;;5050803;28;20027;-69
2021/05/24 11:57:05;;;;;;;4.45;1.50;;;18.80;99.90;;;;;;5051734;28;20025;-67
2021/05/24 11:59:32;;;;;;;2.63;1.30;;;18.90;99.90;;;;;;5052141;28;20056;-69
2021/05/24 12:01:59;;;;;;;2.83;1.45;;;18.90;99.90;;;;;;5048595;28;20029;-70
2021/05/24 12:04:31;;;;;;;2.95;1.10;;;19.10;99.90;;;;;;5051270;28;20461;-67
2021/05/24 12:07:06;;;;;;;2.65;1.30;;;19.10;99.90;;;;;;5053097;28;20480;-68
2021/05/24 12:09:33;;;;;;;2.25;1.13;;;19.40;99.90;;;;;;5053496;28;20031;-68
2021/05/24 12:12:01;;;;;;;3.08;1.30;;;19.50;99.90;;;;;;5052662;28;20116;-68
2021/05/24 12:14:27;;;;;;;3.83;1.30;;;19.50;99.90;;;;;;5053429;28;20048;-68
2021/05/24 12:16:53;;;;;;;4.20;1.60;;;19.70;99.90;;;;;;5053208;28;20025;-68
2021/05/24 12:19:24;;;;;;;3.90;1.30;;;19.70;99.90;;;;;;5052986;28;20029;-68
2021/05/24 12:21:51;;;;;;;3.65;1.63;;;19.60;99.90;;;;;;5052972;28;20049;-69
2021/05/24 12:24:18;;;;;;;3.15;1.30;;;19.50;99.90;;;;;;5052808;28;20052;-68
2021/05/24 12:26:49;;;;;;;1.75;1.40;;;19.50;99.90;;;;;;5052868;28;20029;-68
2021/05/24 12:29:23;;;;;;;3.00;1.40;;;19.40;99.90;;;;;;5039171;28;20025;-67
2021/05/24 12:31:50;;;;;;;5.18;1.42;;;19.50;99.90;;;;;;5051948;28;20032;-68
2021/05/24 12:34:19;;;;;;;1.77;1.20;;;19.50;99.90;;;;;;5052435;28;20485;-68
2021/05/24 12:36:56;;;;;;;3.90;1.33;;;19.40;99.90;;;;;;5052167;28;20116;-68
2021/05/24 12:39:24;;;;;;;6.68;1.40;;;19.60;99.90;;;;;;5051469;28;20017;-68
2021/05/24 12:41:50;;;;;;;3.42;1.50;;;19.60;99.90;;;;;;5050527;28;20039;-69
2021/05/24 12:44:24;;;;;;;3.35;1.30;;;19.60;99.90;;;;;;5052844;28;20473;-67
2021/05/24 12:46:51;;;;;;;2.60;1.35;;;19.70;99.90;;;;;;5045888;28;20481;-68
2021/05/24 12:49:21;;;;;;;3.15;1.50;;;19.70;99.90;;;;;;5051030;28;20052;-67
2021/05/24 12:51:56;;;;;;;3.95;1.40;;;19.80;99.90;;;;;;5051111;28;20031;-68
2021/05/24 12:54:22;;;;;;;;;;;19.80;99.90;;;;;;5051737;28;20049;-68
2021/05/24 12:56:47;;;;;;;2.85;1.27;;;19.90;99.90;;;;;;5052220;28;19947;-68